sensor_id;sensor_type;location;lat;lon;timestamp;P1;durP1;ratioP1;P2;durP2;ratioP2
70228;SDS011;57617;51.988;5.854;2023-02-23T00:00:23;116.90;;;40.38;;
70228;SDS011;57617;51.988;5.854;2023-02-23T00:02:52;117.25;;;38.90;;
70228;SDS011;57617;51.988;5.854;2023-02-23T00:05:25;115.10;;;38.17;;
70228;SDS011;57617;51.988;5.854;2023-02-23T00:07:52;119.45;;;39.67;;
70228;SDS011;57617;51.988;5.854;2023-02-23T01:14:12;128.07;;;38.80;;
70228;SDS011;57617;51.988;5.854;2023-02-23T01:16:37;132.35;;;40.13;;
70228;SDS011;57617;51.988;5.854;2023-02-23T01:19:03;121.78;;;39.25;;
70228;SDS011;57617;51.988;5.854;2023-02-23T01:21:30;125.82;;;39.40;;
70228;SDS011;57617;51.988;5.854;2023-02-23T01:23:57;125.97;;;39.67;;
70228;SDS011;57617;51.988;5.854;2023-02-23T01:26:24;119.50;;;39.60;;
70228;SDS011;57617;51.988;5.854;2023-02-23T01:28:52;126.38;;;39.38;;
70228;SDS011;57617;51.988;5.854;2023-02-23T01:31:22;115.45;;;38.08;;
70228;SDS011;57617;51.988;5.854;2023-02-23T01:33:52;126.88;;;38.65;;
70228;SDS011;57617;51.988;5.854;2023-02-23T01:36:21;122.13;;;38.20;;
70228;SDS011;57617;51.988;5.854;2023-02-23T01:38:47;119.15;;;39.08;;
70228;SDS011;57617;51.988;5.854;2023-02-23T01:41:13;121.22;;;38.60;;
70228;SDS011;57617;51.988;5.854;2023-02-23T01:43:59;114.32;;;37.67;;
70228;SDS011;57617;51.988;5.854;2023-02-23T01:46:25;114.75;;;36.85;;
70228;SDS011;57617;51.988;5.854;2023-02-23T01:48:51;120.40;;;37.20;;
70228;SDS011;57617;51.988;5.854;2023-02-23T01:51:20;121.38;;;37.67;;
70228;SDS011;57617;51.988;5.854;2023-02-23T01:53:59;115.57;;;37.58;;
70228;SDS011;57617;51.988;5.854;2023-02-23T01:56:32;116.55;;;37.67;;
70228;SDS011;57617;51.988;5.854;2023-02-23T01:59:02;109.78;;;36.80;;
70228;SDS011;57617;51.988;5.854;2023-02-23T02:01:31;116.40;;;36.88;;
70228;SDS011;57617;51.988;5.854;2023-02-23T02:03:57;116.78;;;36.83;;
70228;SDS011;57617;51.988;5.854;2023-02-23T02:06:25;119.60;;;37.55;;
70228;SDS011;57617;51.988;5.854;2023-02-23T02:08:53;113.90;;;36.40;;
70228;SDS011;57617;51.988;5.854;2023-02-23T02:11:21;113.00;;;36.28;;
70228;SDS011;57617;51.988;5.854;2023-02-23T02:13:55;115.40;;;35.80;;
70228;SDS011;57617;51.988;5.854;2023-02-23T02:24:50;111.65;;;37.65;;
70228;SDS011;57617;51.988;5.854;2023-02-23T02:33:34;113.05;;;34.85;;
70228;SDS011;57617;51.988;5.854;2023-02-23T02:36:43;104.80;;;33.50;;
70228;SDS011;57617;51.988;5.854;2023-02-23T02:39:14;109.22;;;33.67;;
70228;SDS011;57617;51.988;5.854;2023-02-23T02:42:05;101.10;;;33.67;;
70228;SDS011;57617;51.988;5.854;2023-02-23T02:44:37;110.65;;;33.53;;
70228;SDS011;57617;51.988;5.854;2023-02-23T02:47:28;109.82;;;34.58;;
70228;SDS011;57617;51.988;5.854;2023-02-23T02:50:07;108.18;;;33.50;;
70228;SDS011;57617;51.988;5.854;2023-02-23T02:52:40;109.22;;;34.83;;
70228;SDS011;57617;51.988;5.854;2023-02-23T02:55:14;100.25;;;33.03;;
70228;SDS011;57617;51.988;5.854;2023-02-23T02:57:47;110.47;;;34.30;;
70228;SDS011;57617;51.988;5.854;2023-02-23T03:00:19;96.53;;;33.40;;
70228;SDS011;57617;51.988;5.854;2023-02-23T03:03:31;109.93;;;33.85;;
70228;SDS011;57617;51.988;5.854;2023-02-23T03:06:20;104.05;;;32.95;;
70228;SDS011;57617;51.988;5.854;2023-02-23T03:12:23;98.38;;;33.47;;
70228;SDS011;57617;51.988;5.854;2023-02-23T03:18:31;109.20;;;34.38;;
70228;SDS011;57617;51.988;5.854;2023-02-23T03:21:27;97.22;;;32.53;;
70228;SDS011;57617;51.988;5.854;2023-02-23T03:24:34;103.22;;;33.72;;
70228;SDS011;57617;51.988;5.854;2023-02-23T03:28:09;107.88;;;33.78;;
70228;SDS011;57617;51.988;5.854;2023-02-23T03:33:59;100.53;;;31.88;;
70228;SDS011;57617;51.988;5.854;2023-02-23T03:36:56;107.40;;;33.13;;
70228;SDS011;57617;51.988;5.854;2023-02-23T03:39:50;102.85;;;33.65;;
70228;SDS011;57617;51.988;5.854;2023-02-23T03:42:42;98.25;;;32.63;;
70228;SDS011;57617;51.988;5.854;2023-02-23T03:45:27;103.93;;;33.17;;
70228;SDS011;57617;51.988;5.854;2023-02-23T03:48:12;101.25;;;32.78;;
70228;SDS011;57617;51.988;5.854;2023-02-23T03:51:01;108.63;;;33.67;;
70228;SDS011;57617;51.988;5.854;2023-02-23T03:56:43;108.07;;;34.45;;
70228;SDS011;57617;51.988;5.854;2023-02-23T03:59:31;111.38;;;35.78;;
70228;SDS011;57617;51.988;5.854;2023-02-23T04:02:21;111.63;;;33.75;;
70228;SDS011;57617;51.988;5.854;2023-02-23T04:05:09;109.68;;;33.22;;
70228;SDS011;57617;51.988;5.854;2023-02-23T04:07:58;106.95;;;34.05;;
70228;SDS011;57617;51.988;5.854;2023-02-23T04:10:49;107.15;;;33.45;;
70228;SDS011;57617;51.988;5.854;2023-02-23T04:13:37;114.60;;;35.22;;
70228;SDS011;57617;51.988;5.854;2023-02-23T04:16:05;110.95;;;34.50;;
70228;SDS011;57617;51.988;5.854;2023-02-23T04:18:33;102.93;;;33.47;;
70228;SDS011;57617;51.988;5.854;2023-02-23T04:21:01;115.70;;;33.90;;
70228;SDS011;57617;51.988;5.854;2023-02-23T04:23:27;110.95;;;34.53;;
70228;SDS011;57617;51.988;5.854;2023-02-23T04:25:54;130.43;;;36.22;;
70228;SDS011;57617;51.988;5.854;2023-02-23T04:28:20;122.03;;;34.88;;
70228;SDS011;57617;51.988;5.854;2023-02-23T04:30:46;128.32;;;38.05;;
70228;SDS011;57617;51.988;5.854;2023-02-23T04:33:11;119.50;;;36.15;;
70228;SDS011;57617;51.988;5.854;2023-02-23T04:35:37;116.50;;;34.88;;
70228;SDS011;57617;51.988;5.854;2023-02-23T04:38:03;126.95;;;34.90;;
70228;SDS011;57617;51.988;5.854;2023-02-23T04:40:28;125.10;;;35.25;;
70228;SDS011;57617;51.988;5.854;2023-02-23T04:42:54;120.32;;;35.25;;
70228;SDS011;57617;51.988;5.854;2023-02-23T04:45:22;118.75;;;34.60;;
70228;SDS011;57617;51.988;5.854;2023-02-23T04:47:48;108.70;;;33.45;;
70228;SDS011;57617;51.988;5.854;2023-02-23T04:50:14;123.72;;;34.95;;
70228;SDS011;57617;51.988;5.854;2023-02-23T04:52:40;121.05;;;34.90;;
70228;SDS011;57617;51.988;5.854;2023-02-23T04:55:07;126.00;;;34.47;;
70228;SDS011;57617;51.988;5.854;2023-02-23T04:57:39;118.47;;;33.90;;
70228;SDS011;57617;51.988;5.854;2023-02-23T05:00:05;121.70;;;35.13;;
70228;SDS011;57617;51.988;5.854;2023-02-23T05:02:30;126.55;;;35.47;;
70228;SDS011;57617;51.988;5.854;2023-02-23T05:04:56;114.00;;;34.72;;
70228;SDS011;57617;51.988;5.854;2023-02-23T05:07:21;121.38;;;34.60;;
70228;SDS011;57617;51.988;5.854;2023-02-23T05:09:46;128.95;;;35.22;;
70228;SDS011;57617;51.988;5.854;2023-02-23T05:12:12;143.45;;;35.63;;
70228;SDS011;57617;51.988;5.854;2023-02-23T05:14:37;126.15;;;34.88;;
70228;SDS011;57617;51.988;5.854;2023-02-23T05:17:03;127.60;;;34.17;;
70228;SDS011;57617;51.988;5.854;2023-02-23T05:19:28;128.50;;;33.75;;
70228;SDS011;57617;51.988;5.854;2023-02-23T05:21:53;135.18;;;35.28;;
70228;SDS011;57617;51.988;5.854;2023-02-23T05:24:19;125.57;;;34.38;;
70228;SDS011;57617;51.988;5.854;2023-02-23T05:26:44;134.52;;;36.15;;
70228;SDS011;57617;51.988;5.854;2023-02-23T05:29:10;113.80;;;33.40;;
70228;SDS011;57617;51.988;5.854;2023-02-23T05:31:36;127.82;;;34.20;;
70228;SDS011;57617;51.988;5.854;2023-02-23T05:34:01;118.55;;;34.42;;
70228;SDS011;57617;51.988;5.854;2023-02-23T05:36:26;131.50;;;34.80;;
70228;SDS011;57617;51.988;5.854;2023-02-23T05:38:52;119.22;;;32.83;;
70228;SDS011;57617;51.988;5.854;2023-02-23T05:41:18;122.63;;;34.28;;
70228;SDS011;57617;51.988;5.854;2023-02-23T05:43:46;126.20;;;33.85;;
70228;SDS011;57617;51.988;5.854;2023-02-23T05:46:16;120.38;;;33.67;;
70228;SDS011;57617;51.988;5.854;2023-02-23T05:48:44;124.93;;;33.78;;
70228;SDS011;57617;51.988;5.854;2023-02-23T05:51:10;133.23;;;33.90;;
70228;SDS011;57617;51.988;5.854;2023-02-23T05:53:37;145.13;;;34.83;;
70228;SDS011;57617;51.988;5.854;2023-02-23T05:56:03;115.40;;;33.45;;
70228;SDS011;57617;51.988;5.854;2023-02-23T05:58:29;113.30;;;33.42;;
70228;SDS011;57617;51.988;5.854;2023-02-23T06:00:55;138.18;;;36.05;;
70228;SDS011;57617;51.988;5.854;2023-02-23T06:03:20;131.77;;;34.28;;
70228;SDS011;57617;51.988;5.854;2023-02-23T06:05:50;122.45;;;33.30;;
70228;SDS011;57617;51.988;5.854;2023-02-23T06:08:16;133.40;;;34.70;;
70228;SDS011;57617;51.988;5.854;2023-02-23T06:10:42;122.07;;;33.47;;
70228;SDS011;57617;51.988;5.854;2023-02-23T06:13:07;132.13;;;33.75;;
70228;SDS011;57617;51.988;5.854;2023-02-23T06:15:32;123.03;;;34.00;;
70228;SDS011;57617;51.988;5.854;2023-02-23T06:17:57;133.70;;;35.20;;
70228;SDS011;57617;51.988;5.854;2023-02-23T06:20:23;130.38;;;34.25;;
70228;SDS011;57617;51.988;5.854;2023-02-23T06:22:48;128.43;;;34.72;;
70228;SDS011;57617;51.988;5.854;2023-02-23T06:25:13;123.78;;;33.10;;
70228;SDS011;57617;51.988;5.854;2023-02-23T06:27:39;115.60;;;32.75;;
70228;SDS011;57617;51.988;5.854;2023-02-23T06:30:06;117.35;;;33.42;;
70228;SDS011;57617;51.988;5.854;2023-02-23T06:32:32;132.30;;;34.53;;
70228;SDS011;57617;51.988;5.854;2023-02-23T06:34:57;124.65;;;33.35;;
70228;SDS011;57617;51.988;5.854;2023-02-23T06:37:22;115.07;;;31.88;;
70228;SDS011;57617;51.988;5.854;2023-02-23T06:39:48;124.82;;;33.30;;
70228;SDS011;57617;51.988;5.854;2023-02-23T06:42:14;134.70;;;31.73;;
70228;SDS011;57617;51.988;5.854;2023-02-23T06:44:39;123.18;;;34.00;;
70228;SDS011;57617;51.988;5.854;2023-02-23T06:47:05;125.90;;;33.03;;
70228;SDS011;57617;51.988;5.854;2023-02-23T06:49:30;126.93;;;32.42;;
70228;SDS011;57617;51.988;5.854;2023-02-23T06:51:55;120.18;;;32.67;;
70228;SDS011;57617;51.988;5.854;2023-02-23T06:54:22;126.07;;;32.78;;
70228;SDS011;57617;51.988;5.854;2023-02-23T06:56:47;129.35;;;32.92;;
70228;SDS011;57617;51.988;5.854;2023-02-23T06:59:13;130.20;;;33.60;;
70228;SDS011;57617;51.988;5.854;2023-02-23T07:01:39;128.20;;;33.70;;
70228;SDS011;57617;51.988;5.854;2023-02-23T07:04:06;129.45;;;33.33;;
70228;SDS011;57617;51.988;5.854;2023-02-23T07:06:31;126.07;;;34.55;;
70228;SDS011;57617;51.988;5.854;2023-02-23T07:08:57;129.10;;;32.80;;
70228;SDS011;57617;51.988;5.854;2023-02-23T07:11:22;121.00;;;31.77;;
70228;SDS011;57617;51.988;5.854;2023-02-23T07:13:48;127.40;;;31.90;;
70228;SDS011;57617;51.988;5.854;2023-02-23T07:16:13;116.32;;;32.03;;
70228;SDS011;57617;51.988;5.854;2023-02-23T07:18:40;128.68;;;32.88;;
70228;SDS011;57617;51.988;5.854;2023-02-23T07:21:05;116.05;;;32.47;;
70228;SDS011;57617;51.988;5.854;2023-02-23T07:23:31;119.15;;;31.65;;
70228;SDS011;57617;51.988;5.854;2023-02-23T07:25:57;122.63;;;31.40;;
70228;SDS011;57617;51.988;5.854;2023-02-23T07:28:23;115.43;;;30.83;;
70228;SDS011;57617;51.988;5.854;2023-02-23T07:30:53;123.07;;;31.95;;
70228;SDS011;57617;51.988;5.854;2023-02-23T07:33:20;113.88;;;29.88;;
70228;SDS011;57617;51.988;5.854;2023-02-23T07:35:45;109.10;;;29.63;;
70228;SDS011;57617;51.988;5.854;2023-02-23T07:38:11;103.15;;;29.55;;
70228;SDS011;57617;51.988;5.854;2023-02-23T07:40:37;110.30;;;30.10;;
70228;SDS011;57617;51.988;5.854;2023-02-23T07:43:03;111.30;;;30.10;;
70228;SDS011;57617;51.988;5.854;2023-02-23T07:45:28;104.93;;;29.50;;
70228;SDS011;57617;51.988;5.854;2023-02-23T07:47:53;102.53;;;28.95;;
70228;SDS011;57617;51.988;5.854;2023-02-23T07:50:19;105.68;;;29.40;;
70228;SDS011;57617;51.988;5.854;2023-02-23T07:52:44;116.68;;;29.35;;
70228;SDS011;57617;51.988;5.854;2023-02-23T07:55:10;110.93;;;29.10;;
70228;SDS011;57617;51.988;5.854;2023-02-23T07:57:36;116.25;;;29.00;;
70228;SDS011;57617;51.988;5.854;2023-02-23T08:00:03;113.25;;;29.73;;
70228;SDS011;57617;51.988;5.854;2023-02-23T08:02:29;112.65;;;29.70;;
70228;SDS011;57617;51.988;5.854;2023-02-23T08:04:56;108.28;;;28.73;;
70228;SDS011;57617;51.988;5.854;2023-02-23T08:07:21;108.80;;;28.88;;
70228;SDS011;57617;51.988;5.854;2023-02-23T08:09:47;103.30;;;28.70;;
70228;SDS011;57617;51.988;5.854;2023-02-23T08:12:13;107.40;;;29.25;;
70228;SDS011;57617;51.988;5.854;2023-02-23T08:14:39;110.30;;;30.00;;
70228;SDS011;57617;51.988;5.854;2023-02-23T08:17:05;106.97;;;29.30;;
70228;SDS011;57617;51.988;5.854;2023-02-23T08:19:30;99.75;;;28.25;;
70228;SDS011;57617;51.988;5.854;2023-02-23T08:21:55;99.43;;;28.20;;
70228;SDS011;57617;51.988;5.854;2023-02-23T08:24:21;100.53;;;27.53;;
70228;SDS011;57617;51.988;5.854;2023-02-23T08:26:46;101.68;;;28.73;;
70228;SDS011;57617;51.988;5.854;2023-02-23T08:29:14;105.50;;;29.88;;
70228;SDS011;57617;51.988;5.854;2023-02-23T08:31:40;106.05;;;28.80;;
70228;SDS011;57617;51.988;5.854;2023-02-23T08:34:05;103.72;;;28.98;;
70228;SDS011;57617;51.988;5.854;2023-02-23T08:36:30;110.75;;;29.77;;
70228;SDS011;57617;51.988;5.854;2023-02-23T08:38:55;109.57;;;28.60;;
70228;SDS011;57617;51.988;5.854;2023-02-23T08:41:22;104.95;;;28.88;;
70228;SDS011;57617;51.988;5.854;2023-02-23T08:43:47;104.45;;;28.20;;
70228;SDS011;57617;51.988;5.854;2023-02-23T08:46:12;116.18;;;29.27;;
70228;SDS011;57617;51.988;5.854;2023-02-23T08:48:38;105.63;;;28.95;;
70228;SDS011;57617;51.988;5.854;2023-02-23T08:51:04;103.03;;;28.52;;
70228;SDS011;57617;51.988;5.854;2023-02-23T08:53:31;117.40;;;30.77;;
70228;SDS011;57617;51.988;5.854;2023-02-23T08:56:00;106.90;;;28.20;;
70228;SDS011;57617;51.988;5.854;2023-02-23T08:58:28;97.95;;;28.00;;
70228;SDS011;57617;51.988;5.854;2023-02-23T09:00:57;109.03;;;29.17;;
70228;SDS011;57617;51.988;5.854;2023-02-23T09:03:24;110.43;;;28.23;;
70228;SDS011;57617;51.988;5.854;2023-02-23T09:05:50;110.95;;;28.50;;
70228;SDS011;57617;51.988;5.854;2023-02-23T09:08:16;106.47;;;29.33;;
70228;SDS011;57617;51.988;5.854;2023-02-23T09:10:42;98.68;;;27.60;;
70228;SDS011;57617;51.988;5.854;2023-02-23T09:13:08;100.93;;;27.23;;
70228;SDS011;57617;51.988;5.854;2023-02-23T09:15:40;100.22;;;28.63;;
70228;SDS011;57617;51.988;5.854;2023-02-23T09:18:06;96.13;;;27.92;;
70228;SDS011;57617;51.988;5.854;2023-02-23T09:20:34;110.07;;;28.08;;
70228;SDS011;57617;51.988;5.854;2023-02-23T09:22:59;96.22;;;26.70;;
70228;SDS011;57617;51.988;5.854;2023-02-23T09:25:25;117.70;;;29.58;;
70228;SDS011;57617;51.988;5.854;2023-02-23T09:27:53;106.32;;;28.05;;
70228;SDS011;57617;51.988;5.854;2023-02-23T09:30:24;104.93;;;28.85;;
70228;SDS011;57617;51.988;5.854;2023-02-23T09:32:50;111.15;;;28.60;;
70228;SDS011;57617;51.988;5.854;2023-02-23T09:35:16;109.28;;;29.42;;
70228;SDS011;57617;51.988;5.854;2023-02-23T09:37:44;111.13;;;29.17;;
70228;SDS011;57617;51.988;5.854;2023-02-23T09:40:15;115.63;;;29.13;;
70228;SDS011;57617;51.988;5.854;2023-02-23T09:45:19;104.15;;;28.58;;
70228;SDS011;57617;51.988;5.854;2023-02-23T09:50:36;102.53;;;28.27;;
70228;SDS011;57617;51.988;5.854;2023-02-23T09:53:05;98.28;;;27.48;;
70228;SDS011;57617;51.988;5.854;2023-02-23T09:55:41;104.20;;;27.73;;
70228;SDS011;57617;51.988;5.854;2023-02-23T09:58:11;100.25;;;27.20;;
70228;SDS011;57617;51.988;5.854;2023-02-23T10:00:46;97.50;;;27.98;;
70228;SDS011;57617;51.988;5.854;2023-02-23T10:03:30;96.93;;;27.80;;
70228;SDS011;57617;51.988;5.854;2023-02-23T10:05:59;100.28;;;28.10;;
70228;SDS011;57617;51.988;5.854;2023-02-23T10:08:46;102.30;;;26.23;;
70228;SDS011;57617;51.988;5.854;2023-02-23T10:11:23;108.15;;;28.48;;
70228;SDS011;57617;51.988;5.854;2023-02-23T10:16:34;99.40;;;27.02;;
70228;SDS011;57617;51.988;5.854;2023-02-23T10:21:54;95.78;;;26.02;;
70228;SDS011;57617;51.988;5.854;2023-02-23T10:24:36;94.32;;;25.83;;
70228;SDS011;57617;51.988;5.854;2023-02-23T10:27:07;93.30;;;24.98;;
70228;SDS011;57617;51.988;5.854;2023-02-23T10:29:45;98.38;;;26.52;;
70228;SDS011;57617;51.988;5.854;2023-02-23T10:32:23;93.78;;;24.75;;
70228;SDS011;57617;51.988;5.854;2023-02-23T10:35:09;90.45;;;26.02;;
70228;SDS011;57617;51.988;5.854;2023-02-23T10:37:36;92.32;;;24.92;;
70228;SDS011;57617;51.988;5.854;2023-02-23T10:40:02;93.88;;;25.80;;
70228;SDS011;57617;51.988;5.854;2023-02-23T10:42:30;95.05;;;26.35;;
70228;SDS011;57617;51.988;5.854;2023-02-23T10:44:56;87.20;;;24.70;;
70228;SDS011;57617;51.988;5.854;2023-02-23T10:47:26;92.25;;;25.90;;
70228;SDS011;57617;51.988;5.854;2023-02-23T10:49:56;99.47;;;25.52;;
70228;SDS011;57617;51.988;5.854;2023-02-23T10:55:08;82.55;;;24.63;;
70228;SDS011;57617;51.988;5.854;2023-02-23T10:57:49;85.68;;;22.90;;
70228;SDS011;57617;51.988;5.854;2023-02-23T11:00:25;83.68;;;23.55;;
70228;SDS011;57617;51.988;5.854;2023-02-23T11:02:54;86.15;;;23.77;;
70228;SDS011;57617;51.988;5.854;2023-02-23T11:05:30;76.85;;;22.35;;
70228;SDS011;57617;51.988;5.854;2023-02-23T11:11:02;85.80;;;22.65;;
70228;SDS011;57617;51.988;5.854;2023-02-23T11:13:43;83.07;;;22.40;;
70228;SDS011;57617;51.988;5.854;2023-02-23T11:16:28;84.45;;;22.88;;
70228;SDS011;57617;51.988;5.854;2023-02-23T11:19:02;73.03;;;20.92;;
70228;SDS011;57617;51.988;5.854;2023-02-23T11:21:30;71.10;;;21.85;;
70228;SDS011;57617;51.988;5.854;2023-02-23T11:24:10;84.07;;;23.17;;
70228;SDS011;57617;51.988;5.854;2023-02-23T11:26:40;81.95;;;23.33;;
70228;SDS011;57617;51.988;5.854;2023-02-23T11:29:14;81.53;;;23.98;;
70228;SDS011;57617;51.988;5.854;2023-02-23T11:31:47;74.95;;;22.58;;
70228;SDS011;57617;51.988;5.854;2023-02-23T11:34:23;80.60;;;21.95;;
70228;SDS011;57617;51.988;5.854;2023-02-23T11:37:00;75.20;;;21.05;;
70228;SDS011;57617;51.988;5.854;2023-02-23T11:39:29;75.97;;;20.88;;
70228;SDS011;57617;51.988;5.854;2023-02-23T11:44:39;73.65;;;19.25;;
70228;SDS011;57617;51.988;5.854;2023-02-23T11:47:05;74.82;;;19.40;;
70228;SDS011;57617;51.988;5.854;2023-02-23T11:49:38;73.80;;;19.02;;
70228;SDS011;57617;51.988;5.854;2023-02-23T11:52:03;64.28;;;18.67;;
70228;SDS011;57617;51.988;5.854;2023-02-23T11:54:39;65.90;;;18.67;;
70228;SDS011;57617;51.988;5.854;2023-02-23T11:57:27;66.20;;;19.15;;
70228;SDS011;57617;51.988;5.854;2023-02-23T11:59:57;65.78;;;18.73;;
70228;SDS011;57617;51.988;5.854;2023-02-23T12:02:29;67.68;;;18.77;;
70228;SDS011;57617;51.988;5.854;2023-02-23T12:05:01;68.90;;;18.27;;
70228;SDS011;57617;51.988;5.854;2023-02-23T12:07:35;70.00;;;19.88;;
70228;SDS011;57617;51.988;5.854;2023-02-23T12:12:45;63.25;;;17.58;;
70228;SDS011;57617;51.988;5.854;2023-02-23T12:18:07;65.68;;;18.65;;
70228;SDS011;57617;51.988;5.854;2023-02-23T12:20:53;63.20;;;17.90;;
70228;SDS011;57617;51.988;5.854;2023-02-23T12:23:25;61.47;;;17.73;;
70228;SDS011;57617;51.988;5.854;2023-02-23T12:26:13;58.92;;;17.30;;
70228;SDS011;57617;51.988;5.854;2023-02-23T12:28:45;57.10;;;16.50;;
70228;SDS011;57617;51.988;5.854;2023-02-23T12:33:52;58.28;;;16.77;;
70228;SDS011;57617;51.988;5.854;2023-02-23T12:39:27;52.20;;;16.92;;
70228;SDS011;57617;51.988;5.854;2023-02-23T12:47:12;52.33;;;15.60;;
70228;SDS011;57617;51.988;5.854;2023-02-23T12:49:50;41.17;;;13.88;;
70228;SDS011;57617;51.988;5.854;2023-02-23T12:52:26;40.70;;;13.10;;
70228;SDS011;57617;51.988;5.854;2023-02-23T12:54:56;40.15;;;12.52;;
70228;SDS011;57617;51.988;5.854;2023-02-23T12:57:24;38.63;;;12.05;;
70228;SDS011;57617;51.988;5.854;2023-02-23T13:00:01;36.55;;;10.75;;
70228;SDS011;57617;51.988;5.854;2023-02-23T13:14:17;22.80;;;8.00;;
70228;SDS011;57617;51.988;5.854;2023-02-23T13:17:22;26.30;;;8.40;;
70228;SDS011;57617;51.988;5.854;2023-02-23T13:19:57;25.58;;;8.40;;
70228;SDS011;57617;51.988;5.854;2023-02-23T13:22:39;25.27;;;8.07;;
70228;SDS011;57617;51.988;5.854;2023-02-23T13:28:00;25.98;;;8.73;;
70228;SDS011;57617;51.988;5.854;2023-02-23T13:30:27;27.23;;;9.02;;
70228;SDS011;57617;51.988;5.854;2023-02-23T13:32:58;26.38;;;8.23;;
70228;SDS011;57617;51.988;5.854;2023-02-23T13:35:28;23.98;;;7.55;;
70228;SDS011;57617;51.988;5.854;2023-02-23T13:41:00;23.92;;;7.97;;
70228;SDS011;57617;51.988;5.854;2023-02-23T13:43:53;28.60;;;7.85;;
70228;SDS011;57617;51.988;5.854;2023-02-23T13:46:30;24.58;;;7.35;;
70228;SDS011;57617;51.988;5.854;2023-02-23T13:49:25;21.73;;;7.95;;
70228;SDS011;57617;51.988;5.854;2023-02-23T13:51:59;23.10;;;7.85;;
70228;SDS011;57617;51.988;5.854;2023-02-23T13:54:34;22.38;;;8.10;;
70228;SDS011;57617;51.988;5.854;2023-02-23T13:57:01;23.95;;;7.47;;
70228;SDS011;57617;51.988;5.854;2023-02-23T13:59:30;21.83;;;7.88;;
70228;SDS011;57617;51.988;5.854;2023-02-23T14:02:15;20.52;;;7.28;;
70228;SDS011;57617;51.988;5.854;2023-02-23T14:04:43;22.90;;;7.05;;
70228;SDS011;57617;51.988;5.854;2023-02-23T14:09:37;19.13;;;7.35;;
70228;SDS011;57617;51.988;5.854;2023-02-23T14:12:15;25.27;;;7.80;;
70228;SDS011;57617;51.988;5.854;2023-02-23T14:14:47;23.08;;;8.77;;
70228;SDS011;57617;51.988;5.854;2023-02-23T14:19:41;27.48;;;9.48;;
70228;SDS011;57617;51.988;5.854;2023-02-23T14:22:09;24.15;;;8.70;;
70228;SDS011;57617;51.988;5.854;2023-02-23T14:24:39;28.38;;;9.70;;
70228;SDS011;57617;51.988;5.854;2023-02-23T14:32:39;24.30;;;9.20;;
70228;SDS011;57617;51.988;5.854;2023-02-23T14:35:34;30.17;;;9.45;;
70228;SDS011;57617;51.988;5.854;2023-02-23T14:38:07;28.30;;;9.50;;
70228;SDS011;57617;51.988;5.854;2023-02-23T14:40:41;31.10;;;9.95;;
70228;SDS011;57617;51.988;5.854;2023-02-23T14:43:53;24.60;;;9.30;;
70228;SDS011;57617;51.988;5.854;2023-02-23T14:46:00;31.30;;;10.18;;
70228;SDS011;57617;51.988;5.854;2023-02-23T14:48:29;30.40;;;10.10;;
70228;SDS011;57617;51.988;5.854;2023-02-23T14:51:11;31.13;;;9.68;;
70228;SDS011;57617;51.988;5.854;2023-02-23T14:53:41;29.52;;;10.38;;
70228;SDS011;57617;51.988;5.854;2023-02-23T14:56:15;33.58;;;11.50;;
70228;SDS011;57617;51.988;5.854;2023-02-23T14:58:48;35.50;;;10.02;;
70228;SDS011;57617;51.988;5.854;2023-02-23T15:01:34;31.73;;;10.30;;
70228;SDS011;57617;51.988;5.854;2023-02-23T15:04:05;29.05;;;10.00;;
70228;SDS011;57617;51.988;5.854;2023-02-23T15:06:32;29.15;;;10.20;;
70228;SDS011;57617;51.988;5.854;2023-02-23T15:08:57;27.27;;;9.95;;
70228;SDS011;57617;51.988;5.854;2023-02-23T15:11:22;33.25;;;10.90;;
70228;SDS011;57617;51.988;5.854;2023-02-23T15:13:48;28.08;;;10.05;;
70228;SDS011;57617;51.988;5.854;2023-02-23T15:16:17;27.38;;;9.90;;
70228;SDS011;57617;51.988;5.854;2023-02-23T15:18:47;27.90;;;9.85;;
70228;SDS011;57617;51.988;5.854;2023-02-23T15:21:16;28.58;;;10.55;;
70228;SDS011;57617;51.988;5.854;2023-02-23T15:23:44;27.58;;;9.82;;
70228;SDS011;57617;51.988;5.854;2023-02-23T15:26:16;30.90;;;9.68;;
70228;SDS011;57617;51.988;5.854;2023-02-23T15:28:42;32.53;;;9.68;;
70228;SDS011;57617;51.988;5.854;2023-02-23T15:31:10;29.45;;;9.77;;
70228;SDS011;57617;51.988;5.854;2023-02-23T15:33:36;28.05;;;9.63;;
70228;SDS011;57617;51.988;5.854;2023-02-23T15:36:15;30.25;;;10.48;;
70228;SDS011;57617;51.988;5.854;2023-02-23T15:38:48;29.77;;;10.93;;
70228;SDS011;57617;51.988;5.854;2023-02-23T15:41:19;26.45;;;9.15;;
70228;SDS011;57617;51.988;5.854;2023-02-23T15:43:49;28.25;;;9.35;;
70228;SDS011;57617;51.988;5.854;2023-02-23T15:46:20;30.02;;;9.50;;
70228;SDS011;57617;51.988;5.854;2023-02-23T15:48:50;26.45;;;8.88;;
70228;SDS011;57617;51.988;5.854;2023-02-23T15:51:30;24.92;;;8.95;;
70228;SDS011;57617;51.988;5.854;2023-02-23T15:53:56;25.05;;;8.98;;
70228;SDS011;57617;51.988;5.854;2023-02-23T15:56:33;23.73;;;8.63;;
70228;SDS011;57617;51.988;5.854;2023-02-23T15:59:04;25.17;;;8.68;;
70228;SDS011;57617;51.988;5.854;2023-02-23T16:01:38;23.15;;;8.57;;
70228;SDS011;57617;51.988;5.854;2023-02-23T16:04:15;23.80;;;8.50;;
70228;SDS011;57617;51.988;5.854;2023-02-23T16:11:53;28.27;;;9.70;;
70228;SDS011;57617;51.988;5.854;2023-02-23T16:14:20;32.45;;;9.77;;
70228;SDS011;57617;51.988;5.854;2023-02-23T16:16:47;36.20;;;10.80;;
70228;SDS011;57617;51.988;5.854;2023-02-23T16:19:14;29.00;;;9.32;;
70228;SDS011;57617;51.988;5.854;2023-02-23T16:21:41;29.77;;;9.55;;
70228;SDS011;57617;51.988;5.854;2023-02-23T16:24:13;29.45;;;9.85;;
70228;SDS011;57617;51.988;5.854;2023-02-23T16:26:46;29.63;;;9.38;;
70228;SDS011;57617;51.988;5.854;2023-02-23T16:29:21;34.10;;;10.57;;
70228;SDS011;57617;51.988;5.854;2023-02-23T16:32:15;31.17;;;9.90;;
70228;SDS011;57617;51.988;5.854;2023-02-23T16:34:49;33.08;;;10.02;;
70228;SDS011;57617;51.988;5.854;2023-02-23T16:37:23;37.97;;;10.27;;
70228;SDS011;57617;51.988;5.854;2023-02-23T16:39:50;36.88;;;10.88;;
70228;SDS011;57617;51.988;5.854;2023-02-23T16:42:20;37.95;;;11.15;;
70228;SDS011;57617;51.988;5.854;2023-02-23T16:44:46;41.95;;;11.93;;
70228;SDS011;57617;51.988;5.854;2023-02-23T16:47:25;47.80;;;13.02;;
70228;SDS011;57617;51.988;5.854;2023-02-23T16:49:56;49.95;;;13.43;;
70228;SDS011;57617;51.988;5.854;2023-02-23T16:52:22;48.78;;;13.38;;
70228;SDS011;57617;51.988;5.854;2023-02-23T16:54:48;47.97;;;13.23;;
70228;SDS011;57617;51.988;5.854;2023-02-23T16:59:56;53.40;;;14.55;;
70228;SDS011;57617;51.988;5.854;2023-02-23T17:02:22;53.38;;;14.05;;
70228;SDS011;57617;51.988;5.854;2023-02-23T17:04:48;56.60;;;13.95;;
70228;SDS011;57617;51.988;5.854;2023-02-23T17:07:15;73.05;;;18.63;;
70228;SDS011;57617;51.988;5.854;2023-02-23T17:09:43;64.47;;;16.00;;
70228;SDS011;57617;51.988;5.854;2023-02-23T17:12:12;55.83;;;13.48;;
70228;SDS011;57617;51.988;5.854;2023-02-23T17:14:45;46.83;;;11.13;;
70228;SDS011;57617;51.988;5.854;2023-02-23T17:17:12;45.20;;;9.93;;
70228;SDS011;57617;51.988;5.854;2023-02-23T17:19:42;36.13;;;8.05;;
70228;SDS011;57617;51.988;5.854;2023-02-23T17:22:09;21.48;;;5.72;;